FIN7M EVRA-EFHK
Flight info
| Callsign | FIN7M |
|---|---|
| Flight time | 0h 40m |
| Altitude | 29000 |
| Route | SOKVA DCT ANAMA DCT KEMET DCT KEXLE DCT BEKNA DCT INTOR |
| Aircraft | A320/M-SDE3FGHIRWY/LB1 |
Departure
| Time | 2026-05-05 19:53 |
|---|---|
| Airport | Riga International Airport (EVRA) |
Arrival
| Time | 2026-05-05 20:34 |
|---|---|
| Airport | Helsinki Vantaa Airport (EFHK) |
| Time | Latitude | Longitude | Altitude | Speed | Heading |
|---|---|---|---|---|---|
| 2026-05-05 19:19 | 56.92287 | 23.97751 | 35 ft | 0 kts | 186° |
| 2026-05-05 19:40 | 56.92293 | 23.97752 | 35 ft | 2 kts | 186° |
| 2026-05-05 19:40 | 56.92311 | 23.97755 | 34 ft | 3 kts | 199° |
| 2026-05-05 19:40 | 56.92327 | 23.97766 | 32 ft | 3 kts | 216° |
| 2026-05-05 19:40 | 56.92339 | 23.97790 | 32 ft | 3 kts | 253° |
| 2026-05-05 19:41 | 56.92342 | 23.97807 | 33 ft | 0 kts | 268° |
| 2026-05-05 19:43 | 56.92341 | 23.97804 | 33 ft | 2 kts | 268° |
| 2026-05-05 19:43 | 56.92341 | 23.97779 | 33 ft | 7 kts | 268° |
| 2026-05-05 19:43 | 56.92340 | 23.97754 | 33 ft | 0 kts | 268° |
| 2026-05-05 19:44 | 56.92343 | 23.97721 | 35 ft | 3 kts | 277° |
| 2026-05-05 19:44 | 56.92346 | 23.97695 | 35 ft | 2 kts | 281° |
| 2026-05-05 19:44 | 56.92353 | 23.97591 | 35 ft | 11 kts | 275° |
| 2026-05-05 19:45 | 56.92319 | 23.97499 | 35 ft | 8 kts | 205° |
| 2026-05-05 19:45 | 56.92268 | 23.97485 | 35 ft | 7 kts | 185° |
| 2026-05-05 19:45 | 56.92224 | 23.97477 | 35 ft | 6 kts | 185° |
| 2026-05-05 19:45 | 56.92164 | 23.97468 | 35 ft | 9 kts | 185° |
| 2026-05-05 19:46 | 56.92106 | 23.97458 | 35 ft | 8 kts | 185° |
| 2026-05-05 19:46 | 56.92057 | 23.97451 | 35 ft | 6 kts | 183° |
| 2026-05-05 19:46 | 56.92017 | 23.97446 | 35 ft | 5 kts | 184° |
| 2026-05-05 19:46 | 56.91995 | 23.97443 | 35 ft | 4 kts | 184° |
| 2026-05-05 19:47 | 56.91959 | 23.97439 | 35 ft | 5 kts | 184° |
| 2026-05-05 19:47 | 56.91890 | 23.97432 | 35 ft | 22 kts | 184° |
| 2026-05-05 19:47 | 56.91710 | 23.97404 | 35 ft | 25 kts | 185° |
| 2026-05-05 19:47 | 56.91554 | 23.97378 | 35 ft | 21 kts | 185° |
| 2026-05-05 19:48 | 56.91424 | 23.97354 | 35 ft | 17 kts | 186° |
| 2026-05-05 19:48 | 56.91313 | 23.97334 | 35 ft | 15 kts | 185° |
| 2026-05-05 19:48 | 56.91211 | 23.97321 | 35 ft | 14 kts | 184° |
| 2026-05-05 19:48 | 56.91122 | 23.97308 | 35 ft | 12 kts | 184° |
| 2026-05-05 19:49 | 56.91045 | 23.97296 | 35 ft | 11 kts | 187° |
| 2026-05-05 19:49 | 56.90982 | 23.97252 | 35 ft | 9 kts | 207° |
| 2026-05-05 19:49 | 56.90952 | 23.97225 | 35 ft | 0 kts | 207° |
| 2026-05-05 19:50 | 56.90933 | 23.97209 | 35 ft | 4 kts | 203° |
| 2026-05-05 19:50 | 56.90898 | 23.97191 | 35 ft | 9 kts | 191° |
| 2026-05-05 19:50 | 56.90828 | 23.97173 | 35 ft | 10 kts | 186° |
| 2026-05-05 19:50 | 56.90764 | 23.97159 | 35 ft | 9 kts | 186° |
| 2026-05-05 19:51 | 56.90695 | 23.97133 | 35 ft | 16 kts | 205° |
| 2026-05-05 19:51 | 56.90647 | 23.96966 | 35 ft | 15 kts | 272° |
| 2026-05-05 19:51 | 56.90705 | 23.96851 | 36 ft | 13 kts | 356° |
| 2026-05-05 19:51 | 56.90729 | 23.96852 | 36 ft | 0 kts | 3° |
| 2026-05-05 19:53 | 56.90825 | 23.96863 | 34 ft | 48 kts | 5° |
| 2026-05-05 19:53 | 56.91450 | 23.96964 | 38 ft | 128 kts | 5° |
| 2026-05-05 19:53 | 56.92454 | 23.97134 | 357 ft | 151 kts | 4° |
| 2026-05-05 19:53 | 56.93552 | 23.97256 | 808 ft | 166 kts | 2° |
| 2026-05-05 19:54 | 56.94694 | 23.97396 | 1416 ft | 169 kts | 2° |
| 2026-05-05 19:54 | 56.95938 | 23.97599 | 1740 ft | 191 kts | 2° |
| 2026-05-05 19:54 | 56.97324 | 23.97889 | 2124 ft | 209 kts | 5° |
| 2026-05-05 19:54 | 56.98844 | 23.98349 | 2471 ft | 234 kts | 7° |
| 2026-05-05 19:55 | 57.00518 | 23.98906 | 3022 ft | 251 kts | 8° |
| 2026-05-05 19:55 | 57.02267 | 23.99509 | 3790 ft | 260 kts | 7° |
| 2026-05-05 19:55 | 57.04065 | 24.00137 | 4618 ft | 266 kts | 7° |
| 2026-05-05 19:55 | 57.05906 | 24.00777 | 5409 ft | 273 kts | 7° |
| 2026-05-05 19:56 | 57.07799 | 24.01431 | 6204 ft | 280 kts | 6° |
| 2026-05-05 19:56 | 57.09731 | 24.02092 | 6938 ft | 285 kts | 6° |
| 2026-05-05 19:56 | 57.11703 | 24.02763 | 7737 ft | 290 kts | 6° |
| 2026-05-05 19:56 | 57.13708 | 24.03446 | 8525 ft | 295 kts | 5° |
| 2026-05-05 19:57 | 57.15743 | 24.04140 | 9322 ft | 300 kts | 5° |
| 2026-05-05 19:57 | 57.17819 | 24.04844 | 10048 ft | 306 kts | 5° |
| 2026-05-05 19:57 | 57.19992 | 24.05572 | 10361 ft | 327 kts | 5° |
| 2026-05-05 19:57 | 57.22267 | 24.06338 | 10927 ft | 336 kts | 5° |
| 2026-05-05 19:58 | 57.24583 | 24.07129 | 11638 ft | 340 kts | 5° |
| 2026-05-05 19:58 | 57.26896 | 24.07923 | 12362 ft | 344 kts | 4° |
| 2026-05-05 19:58 | 57.29290 | 24.08749 | 13098 ft | 348 kts | 4° |
| 2026-05-05 19:58 | 57.31684 | 24.09576 | 13802 ft | 352 kts | 4° |
| 2026-05-05 19:59 | 57.34105 | 24.10409 | 14422 ft | 356 kts | 4° |
| 2026-05-05 19:59 | 57.36520 | 24.11241 | 15022 ft | 360 kts | 4° |
| 2026-05-05 19:59 | 57.39001 | 24.12102 | 15631 ft | 364 kts | 4° |
| 2026-05-05 19:59 | 57.41518 | 24.12979 | 16237 ft | 368 kts | 4° |
| 2026-05-05 20:00 | 57.44052 | 24.13858 | 16830 ft | 373 kts | 3° |
| 2026-05-05 20:00 | 57.46622 | 24.14741 | 17425 ft | 377 kts | 3° |
| 2026-05-05 20:00 | 57.49210 | 24.15627 | 18011 ft | 381 kts | 3° |
| 2026-05-05 20:00 | 57.51837 | 24.16528 | 18534 ft | 385 kts | 3° |
| 2026-05-05 20:01 | 57.54478 | 24.17441 | 19054 ft | 389 kts | 3° |
| 2026-05-05 20:01 | 57.57146 | 24.18371 | 19577 ft | 392 kts | 3° |
| 2026-05-05 20:01 | 57.59844 | 24.19319 | 20100 ft | 395 kts | 3° |
| 2026-05-05 20:01 | 57.62556 | 24.20268 | 20621 ft | 398 kts | 3° |
| 2026-05-05 20:02 | 57.65288 | 24.21222 | 21132 ft | 402 kts | 3° |
| 2026-05-05 20:02 | 57.68047 | 24.22183 | 21645 ft | 405 kts | 2° |
| 2026-05-05 20:02 | 57.70828 | 24.23156 | 22157 ft | 408 kts | 2° |
| 2026-05-05 20:02 | 57.73628 | 24.24140 | 22674 ft | 411 kts | 3° |
| 2026-05-05 20:03 | 57.76454 | 24.25134 | 23185 ft | 415 kts | 2° |
| 2026-05-05 20:03 | 57.79307 | 24.26141 | 23655 ft | 418 kts | 2° |
| 2026-05-05 20:03 | 57.82168 | 24.27155 | 24089 ft | 421 kts | 3° |
| 2026-05-05 20:03 | 57.85053 | 24.28178 | 24535 ft | 423 kts | 3° |
| 2026-05-05 20:04 | 57.87957 | 24.29207 | 24974 ft | 425 kts | 3° |
| 2026-05-05 20:04 | 57.90875 | 24.30237 | 25399 ft | 427 kts | 3° |
| 2026-05-05 20:04 | 57.93773 | 24.31246 | 25817 ft | 429 kts | 2° |
| 2026-05-05 20:04 | 57.96722 | 24.32255 | 26235 ft | 431 kts | 2° |
| 2026-05-05 20:05 | 57.99682 | 24.33259 | 26635 ft | 433 kts | 2° |
| 2026-05-05 20:05 | 58.02661 | 24.34269 | 27027 ft | 435 kts | 2° |
| 2026-05-05 20:05 | 58.05652 | 24.35284 | 27420 ft | 438 kts | 2° |
| 2026-05-05 20:05 | 58.08649 | 24.36313 | 27802 ft | 440 kts | 3° |
| 2026-05-05 20:06 | 58.11678 | 24.37358 | 28183 ft | 442 kts | 3° |
| 2026-05-05 20:06 | 58.14705 | 24.38404 | 28549 ft | 444 kts | 3° |
| 2026-05-05 20:06 | 58.17758 | 24.39463 | 28847 ft | 446 kts | 3° |
| 2026-05-05 20:06 | 58.20780 | 24.40523 | 28898 ft | 434 kts | 3° |
| 2026-05-05 20:07 | 58.23687 | 24.41562 | 28893 ft | 418 kts | 3° |
| 2026-05-05 20:07 | 58.29346 | 24.43560 | 28900 ft | 421 kts | 2° |
| 2026-05-05 20:07 | 58.32277 | 24.44552 | 28899 ft | 434 kts | 2° |
| 2026-05-05 20:08 | 58.35290 | 24.45572 | 28895 ft | 445 kts | 2° |
| 2026-05-05 20:08 | 58.38375 | 24.46625 | 28897 ft | 456 kts | 3° |
| 2026-05-05 20:08 | 58.41484 | 24.47704 | 28897 ft | 465 kts | 3° |
| 2026-05-05 20:09 | 58.48015 | 24.50020 | 28896 ft | 481 kts | 4° |
| 2026-05-05 20:09 | 58.54626 | 24.52400 | 28895 ft | 485 kts | 3° |
| 2026-05-05 20:10 | 58.61231 | 24.54789 | 28891 ft | 486 kts | 4° |
| 2026-05-05 20:10 | 58.67880 | 24.57206 | 28895 ft | 486 kts | 3° |
| 2026-05-05 20:11 | 58.74513 | 24.59527 | 28889 ft | 476 kts | 3° |
| 2026-05-05 20:11 | 58.77700 | 24.60672 | 28887 ft | 457 kts | 2° |
| 2026-05-05 20:11 | 58.80766 | 24.61793 | 28890 ft | 440 kts | 2° |
| 2026-05-05 20:11 | 58.83723 | 24.62879 | 28887 ft | 423 kts | 2° |
| 2026-05-05 20:12 | 58.86562 | 24.63917 | 28892 ft | 409 kts | 1° |
| 2026-05-05 20:12 | 58.92076 | 24.65962 | 28893 ft | 401 kts | 2° |
| 2026-05-05 20:13 | 58.97558 | 24.68045 | 28630 ft | 401 kts | 2° |
| 2026-05-05 20:13 | 59.00300 | 24.69104 | 28358 ft | 402 kts | 2° |
| 2026-05-05 20:13 | 59.03037 | 24.70178 | 28089 ft | 402 kts | 2° |
| 2026-05-05 20:13 | 59.05752 | 24.71258 | 27827 ft | 403 kts | 3° |
| 2026-05-05 20:14 | 59.08494 | 24.72456 | 27557 ft | 405 kts | 4° |
| 2026-05-05 20:14 | 59.11242 | 24.73765 | 27294 ft | 407 kts | 5° |
| 2026-05-05 20:14 | 59.13983 | 24.75132 | 27037 ft | 408 kts | 5° |
| 2026-05-05 20:14 | 59.16727 | 24.76515 | 26778 ft | 407 kts | 5° |
| 2026-05-05 20:15 | 59.19464 | 24.77888 | 26524 ft | 406 kts | 5° |
| 2026-05-05 20:15 | 59.22198 | 24.79240 | 26266 ft | 404 kts | 5° |
| 2026-05-05 20:15 | 59.24919 | 24.80570 | 26013 ft | 402 kts | 4° |
| 2026-05-05 20:15 | 59.27628 | 24.81891 | 25636 ft | 399 kts | 4° |
| 2026-05-05 20:16 | 59.30310 | 24.83193 | 25151 ft | 398 kts | 4° |
| 2026-05-05 20:16 | 59.32995 | 24.84493 | 24664 ft | 397 kts | 4° |
| 2026-05-05 20:16 | 59.35689 | 24.85796 | 24160 ft | 398 kts | 4° |
| 2026-05-05 20:16 | 59.38368 | 24.87096 | 23660 ft | 398 kts | 4° |
| 2026-05-05 20:17 | 59.41066 | 24.88405 | 23107 ft | 399 kts | 4° |
| 2026-05-05 20:17 | 59.43755 | 24.89715 | 22593 ft | 397 kts | 4° |
| 2026-05-05 20:17 | 59.46433 | 24.91030 | 22107 ft | 396 kts | 4° |
| 2026-05-05 20:17 | 59.49073 | 24.92338 | 21613 ft | 395 kts | 5° |
| 2026-05-05 20:18 | 59.51722 | 24.93655 | 21131 ft | 393 kts | 5° |
| 2026-05-05 20:18 | 59.54379 | 24.94970 | 20647 ft | 392 kts | 4° |
| 2026-05-05 20:18 | 59.57028 | 24.96279 | 20166 ft | 391 kts | 4° |
| 2026-05-05 20:18 | 59.59666 | 24.97585 | 19691 ft | 391 kts | 4° |
| 2026-05-05 20:19 | 59.62304 | 24.98892 | 19214 ft | 390 kts | 5° |
| 2026-05-05 20:19 | 59.64929 | 25.00198 | 18821 ft | 387 kts | 5° |
| 2026-05-05 20:19 | 59.67557 | 25.01514 | 18362 ft | 387 kts | 5° |
| 2026-05-05 20:19 | 59.70164 | 25.02821 | 17805 ft | 388 kts | 5° |
| 2026-05-05 20:20 | 59.72729 | 25.04103 | 17512 ft | 381 kts | 5° |
| 2026-05-05 20:20 | 59.75295 | 25.05386 | 17084 ft | 379 kts | 5° |
| 2026-05-05 20:20 | 59.77846 | 25.06660 | 16651 ft | 377 kts | 5° |
| 2026-05-05 20:20 | 59.80381 | 25.07927 | 16234 ft | 375 kts | 5° |
| 2026-05-05 20:21 | 59.82909 | 25.09193 | 15838 ft | 373 kts | 5° |
| 2026-05-05 20:21 | 59.85410 | 25.10447 | 15447 ft | 371 kts | 5° |
| 2026-05-05 20:21 | 59.87906 | 25.11703 | 15059 ft | 368 kts | 5° |
| 2026-05-05 20:21 | 59.90382 | 25.12957 | 14430 ft | 363 kts | 5° |
| 2026-05-05 20:22 | 59.92811 | 25.14189 | 13809 ft | 358 kts | 6° |
| 2026-05-05 20:22 | 59.95193 | 25.15403 | 13319 ft | 346 kts | 6° |
| 2026-05-05 20:22 | 59.97460 | 25.16567 | 12927 ft | 333 kts | 6° |
| 2026-05-05 20:22 | 59.99669 | 25.17703 | 12529 ft | 321 kts | 7° |
| 2026-05-05 20:23 | 60.01792 | 25.18793 | 12143 ft | 310 kts | 7° |
| 2026-05-05 20:23 | 60.03848 | 25.19841 | 11764 ft | 299 kts | 7° |
| 2026-05-05 20:23 | 60.05840 | 25.20849 | 11395 ft | 294 kts | 7° |
| 2026-05-05 20:23 | 60.07822 | 25.21847 | 11024 ft | 294 kts | 8° |
| 2026-05-05 20:24 | 60.09809 | 25.22853 | 10646 ft | 294 kts | 8° |
| 2026-05-05 20:24 | 60.11794 | 25.23863 | 10271 ft | 294 kts | 9° |
| 2026-05-05 20:24 | 60.13769 | 25.24874 | 9889 ft | 293 kts | 10° |
| 2026-05-05 20:24 | 60.15746 | 25.25887 | 9570 ft | 289 kts | 10° |
| 2026-05-05 20:25 | 60.17696 | 25.26882 | 9155 ft | 288 kts | 10° |
| 2026-05-05 20:25 | 60.19629 | 25.27870 | 8743 ft | 287 kts | 10° |
| 2026-05-05 20:25 | 60.21555 | 25.28859 | 8374 ft | 285 kts | 11° |
| 2026-05-05 20:25 | 60.23462 | 25.29839 | 7990 ft | 282 kts | 11° |
| 2026-05-05 20:26 | 60.25341 | 25.30809 | 7626 ft | 279 kts | 11° |
| 2026-05-05 20:26 | 60.27226 | 25.31787 | 7233 ft | 278 kts | 11° |
| 2026-05-05 20:26 | 60.29096 | 25.32757 | 6796 ft | 278 kts | 11° |
| 2026-05-05 20:26 | 60.30958 | 25.33722 | 6382 ft | 277 kts | 11° |
| 2026-05-05 20:27 | 60.32801 | 25.34680 | 6083 ft | 271 kts | 11° |
| 2026-05-05 20:27 | 60.34630 | 25.35632 | 5655 ft | 270 kts | 11° |
| 2026-05-05 20:27 | 60.36405 | 25.36555 | 5519 ft | 257 kts | 11° |
| 2026-05-05 20:27 | 60.38105 | 25.37386 | 5383 ft | 243 kts | 4° |
| 2026-05-05 20:28 | 60.39740 | 25.37326 | 5185 ft | 230 kts | 345° |
| 2026-05-05 20:28 | 60.41213 | 25.36212 | 4779 ft | 228 kts | 326° |
| 2026-05-05 20:28 | 60.42431 | 25.34233 | 4411 ft | 224 kts | 315° |
| 2026-05-05 20:28 | 60.43510 | 25.31991 | 4027 ft | 222 kts | 304° |
| 2026-05-05 20:29 | 60.44180 | 25.29266 | 3887 ft | 212 kts | 287° |
| 2026-05-05 20:29 | 60.44377 | 25.26320 | 3742 ft | 212 kts | 269° |
| 2026-05-05 20:29 | 60.44104 | 25.23399 | 3544 ft | 214 kts | 251° |
| 2026-05-05 20:29 | 60.43362 | 25.20762 | 3284 ft | 217 kts | 233° |
| 2026-05-05 20:30 | 60.42348 | 25.18490 | 2993 ft | 218 kts | 231° |
| 2026-05-05 20:30 | 60.41328 | 25.16223 | 2693 ft | 216 kts | 232° |
| 2026-05-05 20:30 | 60.40339 | 25.14027 | 2435 ft | 205 kts | 232° |
| 2026-05-05 20:30 | 60.39413 | 25.11973 | 2120 ft | 188 kts | 232° |
| 2026-05-05 20:31 | 60.38591 | 25.10154 | 1876 ft | 164 kts | 233° |
| 2026-05-05 20:31 | 60.37861 | 25.08535 | 1658 ft | 147 kts | 234° |
| 2026-05-05 20:31 | 60.37194 | 25.07054 | 1454 ft | 140 kts | 234° |
| 2026-05-05 20:31 | 60.36549 | 25.05619 | 1258 ft | 137 kts | 233° |
| 2026-05-05 20:32 | 60.35909 | 25.04200 | 1055 ft | 136 kts | 233° |
| 2026-05-05 20:32 | 60.35490 | 25.03271 | 929 ft | 135 kts | 231° |
| 2026-05-05 20:32 | 60.34653 | 25.01404 | 664 ft | 135 kts | 230° |
| 2026-05-05 20:32 | 60.34026 | 25.00009 | 478 ft | 134 kts | 229° |
| 2026-05-05 20:33 | 60.33397 | 24.98637 | 300 ft | 133 kts | 229° |
| 2026-05-05 20:33 | 60.32775 | 24.97262 | 178 ft | 128 kts | 231° |
| 2026-05-05 20:33 | 60.32250 | 24.96098 | 165 ft | 90 kts | 229° |
| 2026-05-05 20:33 | 60.32007 | 24.95569 | 162 ft | 64 kts | 225° |
| 2026-05-05 20:34 | 60.31806 | 24.95283 | 163 ft | 29 kts | 205° |
| 2026-05-05 20:34 | 60.31687 | 24.95196 | 162 ft | 13 kts | 188° |
| 2026-05-05 20:34 | 60.31644 | 24.95297 | 162 ft | 10 kts | 79° |
| 2026-05-05 20:34 | 60.31677 | 24.95411 | 161 ft | 9 kts | 49° |
| 2026-05-05 20:35 | 60.31695 | 24.95535 | 161 ft | 9 kts | 111° |
| 2026-05-05 20:35 | 60.31658 | 24.95624 | 161 ft | 8 kts | 124° |
| 2026-05-05 20:35 | 60.31651 | 24.95715 | 161 ft | 6 kts | 76° |
| 2026-05-05 20:35 | 60.31677 | 24.95791 | 161 ft | 8 kts | 48° |
| 2026-05-05 20:36 | 60.31751 | 24.95955 | 161 ft | 19 kts | 48° |
| 2026-05-05 20:36 | 60.31834 | 24.96131 | 161 ft | 14 kts | 47° |
| 2026-05-05 20:36 | 60.31859 | 24.96293 | 161 ft | 11 kts | 72° |
| 2026-05-05 20:36 | 60.31899 | 24.96411 | 161 ft | 10 kts | 46° |
| 2026-05-05 20:37 | 60.31900 | 24.96491 | 161 ft | 5 kts | 125° |
| 2026-05-05 20:37 | 60.31878 | 24.96532 | 161 ft | 0 kts | 138° |
| 2026-05-05 20:53 | 60.31866 | 24.96554 | 163 ft | 0 kts | 138° |
| 2026-05-05 20:53 | 60.31875 | 24.96536 | 162 ft | 0 kts | 138° |